createdAt,value
2017-09-12T00:00:37.194Z,10.50
2017-09-12T00:01:31.390Z,10.50
2017-09-12T00:02:26.122Z,10.46
2017-09-12T00:03:27.220Z,10.47
2017-09-12T00:04:16.237Z,10.48
2017-09-12T00:05:11.377Z,10.48
2017-09-12T00:06:11.544Z,10.48
2017-09-12T00:07:00.596Z,10.52
2017-09-12T00:07:54.420Z,10.50
2017-09-12T00:08:49.645Z,10.46
2017-09-12T00:09:43.499Z,10.48
2017-09-12T00:10:37.596Z,10.45
2017-09-12T00:11:31.738Z,10.44
2017-09-12T00:12:26.692Z,10.44
2017-09-12T00:13:26.537Z,10.44
2017-09-12T00:14:21.669Z,10.42
2017-09-12T00:15:15.726Z,10.49
2017-09-12T00:16:15.794Z,10.49
2017-09-12T00:17:03.982Z,10.50
2017-09-12T00:18:05.080Z,10.50
2017-09-12T00:18:53.868Z,10.55
2017-09-12T00:19:48.887Z,10.57
2017-09-12T00:20:36.941Z,10.57
2017-09-12T00:21:25.319Z,10.60
2017-09-12T00:22:19.119Z,10.58
2017-09-12T00:23:08.249Z,10.58
2017-09-12T00:24:02.089Z,10.57
2017-09-12T00:24:57.109Z,10.55
2017-09-12T00:25:57.177Z,10.52
2017-09-12T00:26:52.169Z,10.54
2017-09-12T00:27:46.553Z,10.50
2017-09-12T00:28:41.274Z,10.50
2017-09-12T00:29:29.628Z,10.47
2017-09-12T00:30:24.350Z,10.44
2017-09-12T00:31:25.649Z,10.50
2017-09-12T00:32:19.414Z,10.48
2017-09-12T00:33:08.519Z,10.48
2017-09-12T00:34:03.680Z,10.50
2017-09-12T00:34:57.679Z,10.54
2017-09-12T00:35:51.622Z,10.52
2017-09-12T00:36:46.932Z,10.52
2017-09-12T00:37:40.640Z,10.50
2017-09-12T00:38:35.778Z,10.52
2017-09-12T00:39:30.670Z,10.54
2017-09-12T00:40:19.739Z,10.55
2017-09-12T00:41:07.813Z,10.55
2017-09-12T00:42:08.107Z,10.60
2017-09-12T00:43:02.853Z,10.58
2017-09-12T00:44:02.939Z,10.56
2017-09-12T00:44:57.166Z,10.54
2017-09-12T00:45:51.096Z,10.56
2017-09-12T00:46:45.191Z,10.58
2017-09-12T00:47:40.031Z,10.59
2017-09-12T00:48:34.163Z,10.61
2017-09-12T00:49:23.207Z,10.64
2017-09-12T00:50:17.256Z,10.68
2017-09-12T00:51:11.316Z,10.69
2017-09-12T00:52:05.342Z,10.69
2017-09-12T00:53:00.281Z,10.68
2017-09-12T00:53:54.279Z,10.68
2017-09-12T00:54:54.470Z,10.68
2017-09-12T00:55:49.440Z,10.66
2017-09-12T00:56:43.627Z,10.67
2017-09-12T00:57:38.524Z,10.68
2017-09-12T00:58:33.563Z,10.68
2017-09-12T00:59:27.542Z,10.73
2017-09-12T01:00:21.833Z,10.74
2017-09-12T01:01:16.581Z,10.70
2017-09-12T01:02:10.872Z,10.70
2017-09-12T01:03:04.897Z,10.68
2017-09-12T01:03:59.990Z,10.70
2017-09-12T01:04:54.986Z,10.72
2017-09-12T01:05:43.878Z,10.72
2017-09-12T01:06:32.027Z,10.71
2017-09-12T01:07:27.114Z,10.67
2017-09-12T01:08:21.172Z,10.68
2017-09-12T01:09:10.009Z,10.68
2017-09-12T01:10:10.207Z,10.68
2017-09-12T01:11:03.986Z,10.74
2017-09-12T01:12:04.213Z,10.80
2017-09-12T01:12:59.084Z,10.79
2017-09-12T01:13:53.305Z,10.78
2017-09-12T01:14:48.340Z,10.77
2017-09-12T01:15:42.216Z,10.75
2017-09-12T01:16:42.467Z,10.76
2017-09-12T01:17:36.292Z,10.74
2017-09-12T01:18:31.384Z,10.74
2017-09-12T01:19:19.421Z,10.72
2017-09-12T01:20:19.659Z,10.70
2017-09-12T01:21:14.483Z,10.68
2017-09-12T01:22:03.638Z,10.67
2017-09-12T01:22:58.613Z,10.66
2017-09-12T01:23:52.537Z,10.67
2017-09-12T01:24:47.640Z,10.67
2017-09-12T01:25:41.603Z,10.66
2017-09-12T01:26:36.876Z,10.70
2017-09-12T01:27:37.742Z,10.70
2017-09-12T01:28:37.788Z,10.68
2017-09-12T01:29:32.740Z,10.65
2017-09-12T01:30:27.904Z,10.64
2017-09-12T01:31:22.146Z,10.67
2017-09-12T01:32:15.886Z,10.65
2017-09-12T01:33:11.180Z,10.61
2017-09-12T01:34:00.052Z,10.64
2017-09-12T01:34:54.012Z,10.66
2017-09-12T01:35:48.058Z,10.67
2017-09-12T01:36:42.069Z,10.66
2017-09-12T01:37:42.158Z,10.66
2017-09-12T01:38:37.364Z,10.66
2017-09-12T01:39:37.284Z,10.64
2017-09-12T01:40:32.222Z,10.62
2017-09-12T01:41:32.217Z,10.64
2017-09-12T01:42:26.259Z,10.57
2017-09-12T01:43:26.298Z,10.61
2017-09-12T01:44:20.704Z,10.60
2017-09-12T01:45:14.459Z,10.58
2017-09-12T01:46:08.648Z,10.58
2017-09-12T01:47:02.562Z,10.58
2017-09-12T01:47:51.746Z,10.61
2017-09-12T01:48:46.552Z,10.60
2017-09-12T01:49:41.710Z,10.60
2017-09-12T01:50:41.635Z,10.60
2017-09-12T01:51:30.855Z,10.62
2017-09-12T01:52:20.115Z,10.66
2017-09-12T01:53:14.733Z,10.69
2017-09-12T01:54:02.821Z,10.70
2017-09-12T01:54:56.863Z,10.72
2017-09-12T01:55:56.918Z,10.66
2017-09-12T01:56:56.936Z,10.66
2017-09-12T01:57:50.975Z,10.72
2017-09-12T01:58:46.095Z,10.72
2017-09-12T01:59:46.005Z,10.76
2017-09-12T02:00:40.071Z,10.76
2017-09-12T02:01:40.116Z,10.78
2017-09-12T02:02:34.189Z,10.78
2017-09-12T02:03:28.200Z,10.84
2017-09-12T02:04:22.216Z,10.83
2017-09-12T02:05:11.254Z,10.77
2017-09-12T02:06:06.363Z,10.74
2017-09-12T02:07:00.317Z,10.77
2017-09-12T02:08:00.476Z,10.81
2017-09-12T02:08:54.428Z,10.84
2017-09-12T02:09:54.566Z,10.87
2017-09-12T02:10:49.446Z,10.86
2017-09-12T02:11:50.098Z,10.84
2017-09-12T02:12:43.534Z,10.87
2017-09-12T02:13:44.616Z,10.84
2017-09-12T02:14:32.748Z,10.82
2017-09-12T02:15:32.651Z,10.84
2017-09-12T02:16:21.810Z,10.86
2017-09-12T02:17:15.906Z,10.86
2017-09-12T02:18:16.875Z,10.84
2017-09-12T02:19:10.800Z,10.82
2017-09-12T02:20:04.912Z,10.84
2017-09-12T02:20:59.851Z,10.82
2017-09-12T02:21:53.931Z,10.80
2017-09-12T02:22:48.172Z,10.85
2017-09-12T02:23:48.008Z,10.94
2017-09-12T02:24:42.024Z,11.02
2017-09-12T02:25:36.055Z,10.86
2017-09-12T02:26:30.101Z,10.89
2017-09-12T02:27:25.112Z,10.89
2017-09-12T02:28:19.529Z,10.96
2017-09-12T02:29:13.285Z,10.86
2017-09-12T02:30:08.186Z,10.88
2017-09-12T02:31:08.352Z,10.91
2017-09-12T02:31:57.272Z,10.92
2017-09-12T02:32:57.366Z,10.81
2017-09-12T02:33:45.531Z,10.78
2017-09-12T02:34:33.428Z,10.82
2017-09-12T02:35:27.495Z,10.76
2017-09-12T02:36:16.595Z,10.70
2017-09-12T02:37:10.907Z,10.74
2017-09-12T02:38:04.654Z,10.66
2017-09-12T02:39:04.627Z,10.76
2017-09-12T02:39:59.670Z,10.87
2017-09-12T02:40:59.725Z,10.82
2017-09-12T02:41:54.965Z,10.84
2017-09-12T02:42:54.794Z,10.81
2017-09-12T02:43:48.849Z,10.78
2017-09-12T02:44:49.973Z,10.76
2017-09-12T02:45:44.980Z,10.74
2017-09-12T02:46:44.921Z,10.74
2017-09-12T02:47:38.957Z,10.78
2017-09-12T02:48:28.006Z,10.80
2017-09-12T02:49:27.977Z,10.88
2017-09-12T02:50:28.068Z,10.80
2017-09-12T02:51:22.111Z,10.79
2017-09-12T02:52:16.599Z,10.83
2017-09-12T02:53:10.194Z,10.88
2017-09-12T02:54:05.459Z,10.77
2017-09-12T02:55:00.262Z,10.72
2017-09-12T02:55:49.264Z,10.77
2017-09-12T02:56:44.366Z,10.76
2017-09-12T02:57:39.391Z,10.75
2017-09-12T02:58:28.421Z,10.76
2017-09-12T02:59:22.452Z,10.76
2017-09-12T03:00:17.710Z,10.72
2017-09-12T03:01:17.539Z,10.70
2017-09-12T03:02:12.844Z,10.76
2017-09-12T03:03:07.582Z,10.74
2017-09-12T03:04:02.624Z,10.74
2017-09-12T03:05:02.814Z,10.74
2017-09-12T03:05:51.778Z,10.72
2017-09-12T03:06:40.827Z,10.78
2017-09-12T03:07:34.739Z,10.70
2017-09-12T03:08:29.068Z,10.73
2017-09-12T03:09:16.900Z,10.72
2017-09-12T03:10:10.963Z,10.74
2017-09-12T03:11:11.097Z,10.73
2017-09-12T03:12:04.986Z,10.84
2017-09-12T03:12:59.998Z,10.76
2017-09-12T03:13:54.065Z,10.66
2017-09-12T03:14:48.384Z,10.64
2017-09-12T03:15:42.400Z,10.60
2017-09-12T03:16:48.670Z,10.62
2017-09-12T03:17:37.361Z,10.63
2017-09-12T03:18:38.453Z,10.63
2017-09-12T03:19:27.254Z,10.62
2017-09-12T03:20:21.528Z,10.63
2017-09-12T03:21:16.582Z,10.69
2017-09-12T03:22:05.536Z,10.73
2017-09-12T03:23:05.690Z,10.70
2017-09-12T03:23:54.457Z,10.62
2017-09-12T03:24:54.520Z,10.53
2017-09-12T03:25:48.531Z,10.49
2017-09-12T03:26:48.600Z,10.53
2017-09-12T03:27:42.626Z,10.56
2017-09-12T03:28:42.660Z,10.54
2017-09-12T03:29:42.650Z,10.56
2017-09-12T03:30:43.745Z,10.48
2017-09-12T03:31:37.948Z,10.49
2017-09-12T03:32:38.768Z,10.53
2017-09-12T03:33:40.017Z,10.52
2017-09-12T03:34:34.093Z,10.50
2017-09-12T03:35:28.864Z,10.52
2017-09-12T03:36:24.048Z,10.46
2017-09-12T03:37:23.920Z,10.57
2017-09-12T03:38:18.004Z,10.60
2017-09-12T03:39:12.235Z,10.68
2017-09-12T03:40:12.143Z,10.54
2017-09-12T03:41:07.276Z,10.51
2017-09-12T03:41:55.393Z,10.50
2017-09-12T03:42:56.089Z,10.50
2017-09-12T03:43:56.292Z,10.45
2017-09-12T03:44:51.242Z,10.38
2017-09-12T03:45:45.341Z,10.47
2017-09-12T03:46:39.445Z,10.48
2017-09-12T03:47:34.342Z,10.43
2017-09-12T03:48:35.375Z,10.40
2017-09-12T03:49:29.470Z,10.50
2017-09-12T03:50:23.425Z,10.50
2017-09-12T03:51:18.534Z,10.52
2017-09-12T03:52:12.790Z,10.56
2017-09-12T03:53:06.536Z,10.55
2017-09-12T03:54:00.579Z,10.50
2017-09-12T03:54:49.850Z,10.54
2017-09-12T03:55:43.676Z,10.45
2017-09-12T03:56:39.139Z,10.48
2017-09-12T03:57:32.818Z,10.50
2017-09-12T03:58:32.969Z,10.48
2017-09-12T03:59:26.853Z,10.48
2017-09-12T04:00:20.961Z,10.38
2017-09-12T04:01:15.934Z,10.36
2017-09-12T04:02:04.933Z,10.38
2017-09-12T04:02:59.008Z,10.38
2017-09-12T04:03:48.041Z,10.40
2017-09-12T04:04:37.037Z,10.42
2017-09-12T04:05:26.104Z,10.42
2017-09-12T04:06:26.310Z,10.46
2017-09-12T04:07:14.456Z,10.54
2017-09-12T04:08:08.162Z,10.48
2017-09-12T04:09:02.256Z,10.36
2017-09-12T04:09:56.449Z,10.32
2017-09-12T04:10:45.407Z,10.29
2017-09-12T04:11:33.406Z,10.26
2017-09-12T04:12:27.567Z,10.30
2017-09-12T04:13:16.454Z,10.32
2017-09-12T04:14:11.499Z,10.39
2017-09-12T04:15:00.563Z,10.44
2017-09-12T04:15:55.810Z,10.46
2017-09-12T04:16:55.624Z,10.42
2017-09-12T04:17:49.682Z,10.41
2017-09-12T04:18:43.699Z,10.53
2017-09-12T04:19:37.770Z,10.55
2017-09-12T04:20:31.859Z,10.49
2017-09-12T04:21:25.986Z,10.41
2017-09-12T04:22:25.831Z,10.36
2017-09-12T04:23:21.110Z,10.34
2017-09-12T04:24:21.948Z,10.34
2017-09-12T04:25:11.077Z,10.32
2017-09-12T04:25:58.961Z,10.45
2017-09-12T04:26:53.334Z,10.40
2017-09-12T04:27:53.239Z,10.36
2017-09-12T04:28:47.058Z,10.32
2017-09-12T04:29:42.071Z,10.40
2017-09-12T04:30:31.308Z,10.46
2017-09-12T04:31:25.438Z,10.38
2017-09-12T04:32:20.222Z,10.44
2017-09-12T04:33:14.272Z,10.51
2017-09-12T04:34:08.353Z,10.47
2017-09-12T04:35:08.399Z,10.50
2017-09-12T04:36:08.388Z,10.50
2017-09-12T04:37:02.503Z,10.50
2017-09-12T04:37:56.499Z,10.62
2017-09-12T04:38:51.504Z,10.58
2017-09-12T04:39:40.503Z,10.51
2017-09-12T04:40:34.593Z,10.52
2017-09-12T04:41:35.001Z,10.52
2017-09-12T04:42:29.628Z,10.52
2017-09-12T04:43:29.732Z,10.57
2017-09-12T04:44:23.780Z,10.54
2017-09-12T04:45:24.825Z,10.60
2017-09-12T04:46:20.046Z,10.68
2017-09-12T04:47:13.831Z,10.70
2017-09-12T04:48:02.812Z,10.72
2017-09-12T04:48:56.940Z,10.78
2017-09-12T04:49:44.943Z,10.88
2017-09-12T04:50:40.040Z,11.00
2017-09-12T04:51:34.269Z,11.03
2017-09-12T04:52:23.279Z,11.08
2017-09-12T04:53:18.206Z,11.13
2017-09-12T04:54:06.188Z,11.18
2017-09-12T04:54:55.182Z,11.14
2017-09-12T04:55:49.380Z,11.20
2017-09-12T04:56:44.294Z,11.30
2017-09-12T04:57:38.355Z,11.37
2017-09-12T04:58:32.415Z,11.31
2017-09-12T04:59:26.480Z,11.32
2017-09-12T05:00:21.391Z,11.29
2017-09-12T05:01:09.545Z,11.30
2017-09-12T05:02:04.518Z,11.42
2017-09-12T05:03:04.590Z,11.46
2017-09-12T05:03:58.601Z,11.48
2017-09-12T05:04:52.595Z,11.57
2017-09-12T05:05:47.682Z,11.64
2017-09-12T05:06:43.021Z,11.56
2017-09-12T05:07:30.716Z,11.56
2017-09-12T05:08:24.872Z,11.62
2017-09-12T05:09:12.795Z,11.60
2017-09-12T05:10:07.857Z,11.59
2017-09-12T05:10:56.944Z,11.52
2017-09-12T05:11:57.259Z,11.61
2017-09-12T05:12:50.971Z,11.62
2017-09-12T05:13:46.009Z,11.65
2017-09-12T05:14:35.024Z,11.66
2017-09-12T05:15:30.068Z,11.60
2017-09-12T05:16:30.459Z,11.64
2017-09-12T05:17:30.430Z,11.64
2017-09-12T05:18:25.201Z,11.69
2017-09-12T05:19:19.288Z,11.62
2017-09-12T05:20:14.605Z,11.61
2017-09-12T05:21:03.289Z,11.68
2017-09-12T05:21:58.359Z,11.80
2017-09-12T05:22:52.678Z,11.86
2017-09-12T05:23:41.451Z,11.80
2017-09-12T05:24:36.438Z,11.79
2017-09-12T05:25:31.516Z,11.77
2017-09-12T05:26:19.525Z,11.84
2017-09-12T05:27:20.579Z,11.86
2017-09-12T05:28:20.967Z,11.88
2017-09-12T05:29:15.660Z,12.00
2017-09-12T05:30:15.749Z,11.96
2017-09-12T05:31:09.708Z,11.83
2017-09-12T05:32:03.693Z,11.78
2017-09-12T05:32:57.782Z,11.81
2017-09-12T05:33:52.144Z,11.89
2017-09-12T05:34:51.833Z,11.92
2017-09-12T05:35:46.036Z,11.92
2017-09-12T05:36:46.954Z,11.88
2017-09-12T05:37:41.061Z,11.98
2017-09-12T05:38:30.221Z,12.00
2017-09-12T05:39:18.086Z,12.02
2017-09-12T05:40:13.444Z,11.97
2017-09-12T05:41:07.198Z,12.07
2017-09-12T05:42:01.301Z,12.09
2017-09-12T05:42:49.238Z,12.07
2017-09-12T05:43:37.260Z,12.00
2017-09-12T05:44:37.345Z,12.04
2017-09-12T05:45:31.525Z,12.00
2017-09-12T05:46:31.672Z,11.99
2017-09-12T05:47:20.469Z,12.04
2017-09-12T05:48:08.449Z,12.14
2017-09-12T05:49:03.459Z,12.12
2017-09-12T05:50:04.536Z,12.16
2017-09-12T05:51:04.586Z,12.23
2017-09-12T05:51:53.642Z,12.24
2017-09-12T05:52:54.645Z,12.26
2017-09-12T05:53:56.019Z,12.16
2017-09-12T05:54:43.711Z,12.12
2017-09-12T05:55:38.818Z,12.26
2017-09-12T05:56:34.109Z,12.07
2017-09-12T05:57:33.902Z,12.11
2017-09-12T05:58:28.891Z,12.06
2017-09-12T05:59:22.988Z,12.00
2017-09-12T06:00:10.985Z,12.12
2017-09-12T06:01:05.999Z,12.07
2017-09-12T06:02:00.035Z,12.10
2017-09-12T06:02:49.095Z,12.14
2017-09-12T06:03:55.173Z,12.25
2017-09-12T06:04:49.140Z,12.26
2017-09-12T06:05:43.196Z,12.24
2017-09-12T06:06:37.462Z,12.02
2017-09-12T06:07:37.261Z,11.87
2017-09-12T06:08:31.271Z,11.92
2017-09-12T06:09:26.384Z,11.96
2017-09-12T06:10:26.433Z,11.90
2017-09-12T06:11:20.428Z,11.85
2017-09-12T06:12:20.463Z,11.76
2017-09-12T06:13:15.461Z,11.92
2017-09-12T06:14:15.729Z,12.07
2017-09-12T06:15:10.578Z,12.17
2017-09-12T06:16:04.582Z,12.09
2017-09-12T06:17:04.659Z,12.16
2017-09-12T06:17:58.695Z,12.26
2017-09-12T06:18:58.700Z,12.20
2017-09-12T06:19:53.757Z,12.33
2017-09-12T06:20:49.023Z,12.44
2017-09-12T06:21:42.734Z,12.40
2017-09-12T06:22:36.885Z,12.04
2017-09-12T06:23:24.974Z,12.04
2017-09-12T06:24:18.940Z,11.82
2017-09-12T06:25:07.027Z,11.77
2017-09-12T06:26:02.066Z,11.64
2017-09-12T06:27:03.050Z,11.71
2017-09-12T06:28:04.129Z,11.80
2017-09-12T06:28:58.221Z,11.77
2017-09-12T06:29:47.166Z,11.70
2017-09-12T06:30:41.267Z,11.80
2017-09-12T06:31:36.511Z,11.79
2017-09-12T06:32:30.356Z,11.80
2017-09-12T06:33:24.406Z,11.86
2017-09-12T06:34:19.407Z,11.86
2017-09-12T06:35:14.819Z,11.70
2017-09-12T06:36:08.375Z,11.64
2017-09-12T06:37:01.583Z,11.79
2017-09-12T06:37:55.553Z,11.78
2017-09-12T06:38:49.611Z,11.81
2017-09-12T06:39:44.603Z,11.80
2017-09-12T06:40:45.669Z,11.77
2017-09-12T06:41:45.606Z,11.87
2017-09-12T06:42:39.713Z,11.95
2017-09-12T06:43:39.764Z,11.98
2017-09-12T06:44:33.836Z,12.00
2017-09-12T06:45:34.832Z,11.94
2017-09-12T06:46:28.913Z,11.83
2017-09-12T06:47:17.136Z,11.81
2017-09-12T06:48:12.321Z,11.70
2017-09-12T06:49:12.085Z,11.84
2017-09-12T06:50:06.098Z,11.93
2017-09-12T06:51:06.137Z,12.11
2017-09-12T06:51:55.114Z,12.08
2017-09-12T06:52:50.192Z,12.30
2017-09-12T06:53:50.173Z,12.34
2017-09-12T06:54:38.291Z,12.45
2017-09-12T06:55:38.338Z,12.36
2017-09-12T06:56:32.611Z,12.12
2017-09-12T06:57:26.416Z,11.90
2017-09-12T06:58:21.662Z,11.88
2017-09-12T06:59:15.487Z,12.00
2017-09-12T07:00:09.495Z,12.02
2017-09-12T07:00:58.617Z,12.06
2017-09-12T07:01:52.542Z,12.00
2017-09-12T07:02:41.638Z,12.07
2017-09-12T07:03:29.599Z,12.30
2017-09-12T07:04:24.754Z,12.18
2017-09-12T07:05:19.745Z,11.98
2017-09-12T07:06:13.758Z,11.80
2017-09-12T07:07:08.103Z,11.77
2017-09-12T07:07:56.863Z,11.71
2017-09-12T07:08:45.899Z,11.84
2017-09-12T07:09:39.968Z,11.92
2017-09-12T07:10:40.042Z,11.83
2017-09-12T07:11:29.003Z,11.66
2017-09-12T07:12:24.045Z,11.76
2017-09-12T07:13:19.163Z,12.08
2017-09-12T07:14:19.183Z,12.19
2017-09-12T07:15:13.198Z,12.15
2017-09-12T07:16:08.219Z,12.01
2017-09-12T07:17:02.304Z,11.95
2017-09-12T07:17:51.320Z,11.92
2017-09-12T07:18:52.347Z,11.85
2017-09-12T07:19:40.605Z,11.97
2017-09-12T07:20:34.466Z,12.02
2017-09-12T07:21:28.440Z,12.04
2017-09-12T07:22:17.528Z,12.02
2017-09-12T07:23:12.011Z,12.02
2017-09-12T07:24:11.911Z,11.94
2017-09-12T07:25:00.657Z,11.76
2017-09-12T07:25:54.661Z,11.66
2017-09-12T07:26:49.721Z,11.78
2017-09-12T07:27:44.740Z,11.84
2017-09-12T07:28:46.082Z,11.79
2017-09-12T07:29:35.099Z,11.80
2017-09-12T07:30:28.970Z,11.94
2017-09-12T07:31:17.921Z,12.15
2017-09-12T07:32:18.985Z,11.94
2017-09-12T07:33:07.034Z,12.10
2017-09-12T07:34:02.334Z,12.16
2017-09-12T07:34:56.188Z,12.20
2017-09-12T07:35:45.168Z,12.12
2017-09-12T07:36:45.189Z,12.21
2017-09-12T07:37:45.265Z,12.33
2017-09-12T07:38:34.375Z,12.36
2017-09-12T07:39:28.671Z,12.36
2017-09-12T07:40:28.363Z,12.34
2017-09-12T07:41:28.508Z,12.22
2017-09-12T07:42:22.480Z,12.24
2017-09-12T07:43:16.445Z,12.18
2017-09-12T07:44:10.819Z,12.06
2017-09-12T07:45:04.628Z,11.87
2017-09-12T07:45:58.677Z,11.88
2017-09-12T07:46:59.684Z,11.96
2017-09-12T07:47:53.642Z,12.08
2017-09-12T07:48:41.904Z,12.16
2017-09-12T07:49:36.854Z,12.14
2017-09-12T07:50:36.783Z,12.18
2017-09-12T07:51:31.114Z,12.25
2017-09-12T07:52:26.107Z,12.03
2017-09-12T07:53:26.166Z,12.07
2017-09-12T07:54:20.209Z,11.87
2017-09-12T07:55:15.256Z,11.81
2017-09-12T07:56:10.332Z,11.88
2017-09-12T07:56:59.307Z,12.05
2017-09-12T07:57:47.410Z,12.08
2017-09-12T07:58:36.399Z,12.17
2017-09-12T07:59:36.207Z,12.26
2017-09-12T08:00:24.264Z,12.34
2017-09-12T08:01:18.400Z,12.28
2017-09-12T08:02:12.411Z,12.17
2017-09-12T08:03:01.432Z,12.12
2017-09-12T08:03:55.667Z,12.16
2017-09-12T08:04:49.652Z,12.20
2017-09-12T08:05:49.530Z,12.44
2017-09-12T08:06:43.630Z,12.38
2017-09-12T08:07:43.594Z,12.46
2017-09-12T08:08:38.876Z,12.39
2017-09-12T08:09:32.781Z,12.57
2017-09-12T08:10:21.772Z,12.60
2017-09-12T08:11:16.805Z,12.72
2017-09-12T08:12:12.216Z,13.32
2017-09-12T08:13:12.088Z,14.52
2017-09-12T08:14:06.978Z,16.46
2017-09-12T08:15:07.031Z,16.49
2017-09-12T08:16:01.227Z,16.35
2017-09-12T08:17:01.000Z,15.92
2017-09-12T08:17:55.118Z,16.20
2017-09-12T08:18:55.164Z,15.83
2017-09-12T08:19:55.239Z,16.38
2017-09-12T08:20:49.258Z,16.48
2017-09-12T08:21:44.354Z,16.13
2017-09-12T08:22:38.407Z,16.23
2017-09-12T08:23:33.769Z,16.78
2017-09-12T08:24:27.466Z,16.90
2017-09-12T08:25:21.447Z,16.84
2017-09-12T08:26:16.674Z,16.45
2017-09-12T08:27:16.670Z,15.05
2017-09-12T08:28:11.898Z,14.86
2017-09-12T08:29:06.402Z,14.36
2017-09-12T08:29:59.947Z,13.97
2017-09-12T08:30:53.781Z,13.71
2017-09-12T08:31:48.120Z,13.96
2017-09-12T08:32:41.911Z,13.78
2017-09-12T08:33:31.128Z,13.44
2017-09-12T08:34:26.131Z,13.53
2017-09-12T08:35:21.132Z,13.64
2017-09-12T08:36:10.419Z,13.83
2017-09-12T08:37:05.159Z,13.84
2017-09-12T08:37:59.335Z,14.44
2017-09-12T08:38:54.442Z,14.58
2017-09-12T08:39:48.485Z,15.22
2017-09-12T08:40:42.478Z,15.56
2017-09-12T08:41:31.604Z,17.00
2017-09-12T08:42:26.629Z,17.09
2017-09-12T08:43:21.744Z,16.84
2017-09-12T08:44:10.713Z,16.98
2017-09-12T08:45:05.717Z,17.03
2017-09-12T08:45:54.841Z,17.15
2017-09-12T08:46:48.836Z,17.48
2017-09-12T08:47:43.924Z,18.18
2017-09-12T08:48:38.056Z,18.37
2017-09-12T08:49:31.933Z,18.42
2017-09-12T08:50:27.045Z,18.76
2017-09-12T08:51:27.123Z,18.96
2017-09-12T08:52:21.134Z,19.43
2017-09-12T08:53:15.234Z,19.95
2017-09-12T08:54:03.269Z,20.67
2017-09-12T08:54:58.282Z,21.23
2017-09-12T08:55:53.421Z,21.70
2017-09-12T08:56:42.445Z,21.52
2017-09-12T08:57:36.513Z,21.16
2017-09-12T08:58:36.480Z,21.34
2017-09-12T08:59:36.641Z,21.33
2017-09-12T09:00:30.640Z,20.76
2017-09-12T09:01:19.671Z,20.36
2017-09-12T09:02:13.740Z,19.80
2017-09-12T09:03:08.763Z,19.84
2017-09-12T09:03:56.912Z,19.85
2017-09-12T09:04:45.932Z,19.55
2017-09-12T09:05:46.864Z,19.34
2017-09-12T09:06:41.940Z,19.58
2017-09-12T09:07:36.026Z,19.95
2017-09-12T09:08:36.112Z,20.43
2017-09-12T09:09:30.153Z,20.29
2017-09-12T09:10:30.192Z,20.21
2017-09-12T09:11:25.297Z,20.33
2017-09-12T09:12:19.652Z,20.92
2017-09-12T09:13:19.331Z,21.16
2017-09-12T09:14:14.404Z,21.30
2017-09-12T09:15:02.537Z,20.92
2017-09-12T09:15:57.528Z,20.34
2017-09-12T09:16:52.577Z,20.33
2017-09-12T09:17:46.967Z,20.57
2017-09-12T09:18:40.687Z,20.43
2017-09-12T09:19:35.721Z,20.57
2017-09-12T09:20:30.813Z,20.97
2017-09-12T09:21:18.817Z,21.19
2017-09-12T09:22:14.004Z,20.85
2017-09-12T09:23:14.966Z,20.50
2017-09-12T09:24:15.021Z,20.73
2017-09-12T09:25:09.119Z,20.56
2017-09-12T09:26:03.131Z,20.52
2017-09-12T09:26:57.156Z,20.18
2017-09-12T09:27:51.192Z,19.96
2017-09-12T09:28:40.347Z,20.22
2017-09-12T09:29:34.273Z,20.03
2017-09-12T09:30:29.604Z,19.60
2017-09-12T09:31:24.419Z,18.96
2017-09-12T09:32:18.447Z,18.66
2017-09-12T09:33:13.504Z,18.88
2017-09-12T09:34:07.574Z,18.78
2017-09-12T09:34:56.606Z,18.66
2017-09-12T09:35:51.785Z,18.37
2017-09-12T09:36:45.730Z,18.20
2017-09-12T09:37:34.805Z,18.24
2017-09-12T09:38:29.864Z,18.66
2017-09-12T09:39:19.005Z,19.35
2017-09-12T09:40:12.983Z,19.67
2017-09-12T09:41:07.082Z,19.31
2017-09-12T09:42:01.066Z,18.74
2017-09-12T09:42:49.126Z,18.56
2017-09-12T09:43:44.250Z,18.10
2017-09-12T09:44:38.286Z,17.79
2017-09-12T09:45:38.242Z,17.54
2017-09-12T09:46:33.216Z,16.88
2017-09-12T09:47:33.187Z,17.08
2017-09-12T09:48:33.349Z,16.67
2017-09-12T09:49:22.192Z,16.88
2017-09-12T09:50:22.400Z,17.84
2017-09-12T09:51:11.405Z,18.19
2017-09-12T09:52:11.414Z,18.24
2017-09-12T09:53:06.500Z,18.21
2017-09-12T09:53:55.512Z,18.30
2017-09-12T09:54:49.610Z,18.44
2017-09-12T09:55:38.628Z,18.49
2017-09-12T09:56:32.690Z,18.56
2017-09-12T09:57:32.849Z,18.46
2017-09-12T09:58:26.946Z,18.46
2017-09-12T09:59:20.954Z,18.58
2017-09-12T10:00:21.072Z,19.08
2017-09-12T10:01:10.160Z,19.62
2017-09-12T10:02:04.185Z,19.91
2017-09-12T10:03:04.292Z,19.86
2017-09-12T10:04:04.330Z,19.88
2017-09-12T10:04:58.330Z,20.42
2017-09-12T10:05:52.398Z,20.30
2017-09-12T10:06:46.589Z,20.08
2017-09-12T10:07:34.487Z,19.75
2017-09-12T10:08:34.596Z,19.09
2017-09-12T10:09:28.618Z,18.45
2017-09-12T10:10:29.434Z,18.02
2017-09-12T10:11:23.588Z,18.08
2017-09-12T10:12:18.627Z,18.63
2017-09-12T10:13:07.653Z,19.18
2017-09-12T10:14:01.621Z,19.58
2017-09-12T10:14:50.709Z,20.20
2017-09-12T10:15:44.931Z,20.48
2017-09-12T10:16:33.938Z,20.97
2017-09-12T10:17:29.080Z,21.04
2017-09-12T10:18:24.219Z,20.47
2017-09-12T10:19:24.229Z,19.97
2017-09-12T10:20:19.240Z,19.62
2017-09-12T10:21:13.291Z,19.20
2017-09-12T10:22:13.419Z,18.78
2017-09-12T10:23:07.625Z,18.71
2017-09-12T10:24:07.459Z,18.90
2017-09-12T10:25:02.526Z,19.40
2017-09-12T10:25:51.548Z,19.92
2017-09-12T10:26:45.552Z,20.51
2017-09-12T10:27:40.629Z,21.04
2017-09-12T10:28:36.037Z,21.25
2017-09-12T10:29:24.837Z,21.32
2017-09-12T10:30:19.778Z,21.77
2017-09-12T10:31:13.910Z,22.38
2017-09-12T10:32:01.629Z,22.54
2017-09-12T10:32:50.919Z,22.26
2017-09-12T10:33:45.962Z,21.94
2017-09-12T10:34:40.042Z,21.54
2017-09-12T10:35:34.116Z,21.83
2017-09-12T10:36:28.252Z,22.08
2017-09-12T10:37:23.095Z,21.71
2017-09-12T10:38:17.195Z,21.51
2017-09-12T10:39:06.468Z,21.36
2017-09-12T10:40:00.330Z,21.44
2017-09-12T10:40:49.212Z,21.08
2017-09-12T10:41:43.159Z,20.37
2017-09-12T10:42:32.484Z,20.20
2017-09-12T10:43:32.361Z,19.79
2017-09-12T10:44:27.482Z,19.26
2017-09-12T10:45:16.713Z,18.95
2017-09-12T10:46:11.502Z,18.69
2017-09-12T10:47:05.697Z,18.43
2017-09-12T10:48:00.173Z,18.73
2017-09-12T10:48:54.615Z,19.04
2017-09-12T10:49:43.986Z,18.97
2017-09-12T10:50:37.961Z,18.69
2017-09-12T10:51:32.808Z,18.93
2017-09-12T10:52:27.954Z,19.40
2017-09-12T10:53:23.074Z,20.02
2017-09-12T10:54:17.059Z,20.73
2017-09-12T10:55:18.311Z,21.34
2017-09-12T10:56:18.102Z,21.68
2017-09-12T10:57:12.603Z,21.43
2017-09-12T10:58:07.142Z,20.56
2017-09-12T10:59:07.216Z,20.08
2017-09-12T11:00:02.267Z,19.58
2017-09-12T11:00:57.319Z,19.25
2017-09-12T11:01:51.560Z,18.86
2017-09-12T11:02:39.626Z,18.54
2017-09-12T11:03:28.496Z,18.44
2017-09-12T11:04:23.597Z,19.04
2017-09-12T11:05:23.669Z,19.40
2017-09-12T11:06:18.659Z,19.41
2017-09-12T11:07:12.893Z,19.04
2017-09-12T11:08:12.951Z,18.49
2017-09-12T11:09:01.828Z,18.12
2017-09-12T11:09:56.102Z,17.90
2017-09-12T11:10:50.965Z,17.84
2017-09-12T11:11:45.182Z,17.80
2017-09-12T11:12:39.989Z,17.94
2017-09-12T11:13:34.054Z,18.69
2017-09-12T11:14:29.088Z,19.47
2017-09-12T11:15:18.098Z,19.96
2017-09-12T11:16:07.622Z,20.38
2017-09-12T11:17:01.547Z,20.94
2017-09-12T11:18:01.427Z,21.54
2017-09-12T11:18:55.490Z,22.18
2017-09-12T11:19:55.710Z,22.82
2017-09-12T11:20:43.681Z,23.12
2017-09-12T11:21:37.817Z,23.54
2017-09-12T11:22:32.017Z,23.48
2017-09-12T11:23:25.880Z,22.84
2017-09-12T11:24:19.908Z,22.53
2017-09-12T11:25:13.883Z,22.63
2017-09-12T11:26:02.995Z,22.96
2017-09-12T11:26:51.005Z,22.72
2017-09-12T11:27:46.218Z,22.73
2017-09-12T11:28:40.239Z,22.62
2017-09-12T11:29:29.137Z,22.65
2017-09-12T11:30:18.279Z,22.90
2017-09-12T11:31:12.362Z,22.84
2017-09-12T11:32:06.383Z,22.61
2017-09-12T11:32:55.452Z,22.60
2017-09-12T11:33:43.512Z,22.60
2017-09-12T11:34:43.557Z,21.76
2017-09-12T11:35:37.600Z,21.42
2017-09-12T11:36:37.735Z,21.49
2017-09-12T11:37:31.722Z,21.54
2017-09-12T11:38:25.727Z,21.33
2017-09-12T11:39:19.771Z,21.38
2017-09-12T11:40:13.944Z,21.35
2017-09-12T11:41:02.932Z,21.38
2017-09-12T11:41:56.982Z,21.65